Página principal
METAR-TAF:

METAR-TAF

Aeroportos :

Koror, Babeldaob, Palau

latitude: 07-22N, longitude: 134-32E, altura: 54 m

Observação actual do tempo

O boletim foi feito há 1 hora e 39 minutos, às 17:50 UTC
Vento calmo
Temperatura 25°C
Humidade 89%
Pressão 1009 hPa
Visibilidade: 24.1 km
Poucas nuvensa uma altura de 1600 ft
Nuvens dispersasa uma altura de 30000 ft

METAR: PTRO 141750Z 00000KT 15SM FEW016 SCT300 25/23 A2980

Hora: 04:29 (19:29 UTC)

Previsão

O boletim foi feito há 1 hora e 54 minutos, às 17:35 UTC
Previsão válida de 14 às 18 UTC a 15 às 18 UTC
Vento 8 kt de nordeste
Visibilidade: 10 km
Poucas nuvensa uma altura de 1600 ft

TAF: PTRO 141735Z 1418/1518 04008KT P6SM FEW016

Observações e previsões do tempo de mais de 4000 aeroportos (mensagens METAR e TAF).

As estações disponíveis são os pontos amarelos e vermelhos sobre o mapa.

Mova o rato sobre o mapa para ver o nome da estação.

Depois clique no ponto para visualizar as observações e previsões meteorológicas.

Para alterar o mapa : clique nos botões verdes com uma cruz preta para aumentar o zoom; no botão verde com uma pitada de zoom; ou nas setas verdes para mapas adjacentes.


METAR-TAF: